sensor_id;sensor_type;location;lat;lon;timestamp;P1;durP1;ratioP1;P2;durP2;ratioP2
74245;SDS011;62601;51.044;13.788;2023-07-30T00:00:37;3.73;;;3.43;;
74245;SDS011;62601;51.044;13.788;2023-07-30T00:02:57;4.77;;;3.40;;
74245;SDS011;62601;51.044;13.788;2023-07-30T00:05:17;4.10;;;3.70;;
74245;SDS011;62601;51.044;13.788;2023-07-30T00:07:38;5.90;;;3.87;;
74245;SDS011;62601;51.044;13.788;2023-07-30T00:09:58;4.57;;;3.83;;
74245;SDS011;62601;51.044;13.788;2023-07-30T00:12:18;4.90;;;4.07;;
74245;SDS011;62601;51.044;13.788;2023-07-30T00:14:38;9.53;;;8.60;;
74245;SDS011;62601;51.044;13.788;2023-07-30T00:16:58;6.20;;;4.60;;
74245;SDS011;62601;51.044;13.788;2023-07-30T00:19:18;4.60;;;3.90;;
74245;SDS011;62601;51.044;13.788;2023-07-30T00:21:39;4.10;;;3.80;;
74245;SDS011;62601;51.044;13.788;2023-07-30T00:23:59;4.10;;;3.47;;
74245;SDS011;62601;51.044;13.788;2023-07-30T00:26:19;8.50;;;3.67;;
74245;SDS011;62601;51.044;13.788;2023-07-30T00:28:39;4.97;;;3.70;;
74245;SDS011;62601;51.044;13.788;2023-07-30T00:30:59;5.57;;;3.23;;
74245;SDS011;62601;51.044;13.788;2023-07-30T00:33:19;3.73;;;3.20;;
74245;SDS011;62601;51.044;13.788;2023-07-30T00:35:39;5.17;;;2.97;;
74245;SDS011;62601;51.044;13.788;2023-07-30T00:37:59;4.50;;;3.30;;
74245;SDS011;62601;51.044;13.788;2023-07-30T00:40:19;3.90;;;3.50;;
74245;SDS011;62601;51.044;13.788;2023-07-30T00:42:39;5.93;;;3.50;;
74245;SDS011;62601;51.044;13.788;2023-07-30T00:45:00;5.10;;;3.13;;
74245;SDS011;62601;51.044;13.788;2023-07-30T00:47:20;6.03;;;3.10;;
74245;SDS011;62601;51.044;13.788;2023-07-30T00:49:41;8.03;;;2.90;;
74245;SDS011;62601;51.044;13.788;2023-07-30T00:52:01;3.97;;;2.23;;
74245;SDS011;62601;51.044;13.788;2023-07-30T00:54:22;2.50;;;2.30;;
74245;SDS011;62601;51.044;13.788;2023-07-30T00:56:43;5.00;;;2.40;;
74245;SDS011;62601;51.044;13.788;2023-07-30T00:59:05;2.97;;;2.63;;
74245;SDS011;62601;51.044;13.788;2023-07-30T01:01:25;4.13;;;2.87;;
74245;SDS011;62601;51.044;13.788;2023-07-30T01:03:45;3.20;;;2.90;;
74245;SDS011;62601;51.044;13.788;2023-07-30T01:06:06;4.70;;;2.77;;
74245;SDS011;62601;51.044;13.788;2023-07-30T01:08:26;3.10;;;2.80;;
74245;SDS011;62601;51.044;13.788;2023-07-30T01:10:47;3.90;;;2.87;;
74245;SDS011;62601;51.044;13.788;2023-07-30T01:13:07;3.83;;;2.80;;
74245;SDS011;62601;51.044;13.788;2023-07-30T01:15:28;3.80;;;2.60;;
74245;SDS011;62601;51.044;13.788;2023-07-30T01:17:48;3.13;;;2.80;;
74245;SDS011;62601;51.044;13.788;2023-07-30T01:20:08;3.33;;;2.57;;
74245;SDS011;62601;51.044;13.788;2023-07-30T01:22:30;3.70;;;3.13;;
74245;SDS011;62601;51.044;13.788;2023-07-30T01:24:50;2.97;;;2.60;;
74245;SDS011;62601;51.044;13.788;2023-07-30T01:27:12;3.67;;;2.87;;
74245;SDS011;62601;51.044;13.788;2023-07-30T01:29:40;4.43;;;2.70;;
74245;SDS011;62601;51.044;13.788;2023-07-30T01:32:02;4.17;;;2.93;;
74245;SDS011;62601;51.044;13.788;2023-07-30T01:34:24;3.07;;;2.27;;
74245;SDS011;62601;51.044;13.788;2023-07-30T01:36:46;5.10;;;3.27;;
74245;SDS011;62601;51.044;13.788;2023-07-30T01:39:07;3.03;;;2.70;;
74245;SDS011;62601;51.044;13.788;2023-07-30T01:41:29;4.37;;;2.90;;
74245;SDS011;62601;51.044;13.788;2023-07-30T01:43:49;4.33;;;2.90;;
74245;SDS011;62601;51.044;13.788;2023-07-30T01:46:09;5.50;;;2.70;;
74245;SDS011;62601;51.044;13.788;2023-07-30T01:48:29;3.57;;;2.80;;
74245;SDS011;62601;51.044;13.788;2023-07-30T01:50:49;3.33;;;2.70;;
74245;SDS011;62601;51.044;13.788;2023-07-30T01:53:09;3.50;;;2.47;;
74245;SDS011;62601;51.044;13.788;2023-07-30T01:55:29;3.70;;;2.90;;
74245;SDS011;62601;51.044;13.788;2023-07-30T01:57:49;2.93;;;2.73;;
74245;SDS011;62601;51.044;13.788;2023-07-30T02:00:10;3.93;;;2.70;;
74245;SDS011;62601;51.044;13.788;2023-07-30T02:02:30;3.30;;;2.90;;
74245;SDS011;62601;51.044;13.788;2023-07-30T02:04:50;3.00;;;2.80;;
74245;SDS011;62601;51.044;13.788;2023-07-30T02:07:10;3.20;;;2.90;;
74245;SDS011;62601;51.044;13.788;2023-07-30T02:09:30;3.10;;;2.40;;
74245;SDS011;62601;51.044;13.788;2023-07-30T02:11:51;2.97;;;2.63;;
74245;SDS011;62601;51.044;13.788;2023-07-30T02:14:11;3.10;;;2.80;;
74245;SDS011;62601;51.044;13.788;2023-07-30T02:16:31;2.77;;;2.50;;
74245;SDS011;62601;51.044;13.788;2023-07-30T02:18:51;2.70;;;2.40;;
74245;SDS011;62601;51.044;13.788;2023-07-30T02:21:11;2.97;;;2.50;;
74245;SDS011;62601;51.044;13.788;2023-07-30T02:23:31;2.60;;;2.23;;
74245;SDS011;62601;51.044;13.788;2023-07-30T02:25:51;3.83;;;2.30;;
74245;SDS011;62601;51.044;13.788;2023-07-30T02:28:11;5.30;;;2.40;;
74245;SDS011;62601;51.044;13.788;2023-07-30T02:30:32;4.23;;;3.50;;
74245;SDS011;62601;51.044;13.788;2023-07-30T02:32:52;2.83;;;2.63;;
74245;SDS011;62601;51.044;13.788;2023-07-30T02:35:12;2.53;;;2.33;;
74245;SDS011;62601;51.044;13.788;2023-07-30T02:37:33;3.70;;;2.87;;
74245;SDS011;62601;51.044;13.788;2023-07-30T02:39:53;5.60;;;2.70;;
74245;SDS011;62601;51.044;13.788;2023-07-30T02:42:13;2.67;;;2.47;;
74245;SDS011;62601;51.044;13.788;2023-07-30T02:44:33;3.33;;;3.00;;
74245;SDS011;62601;51.044;13.788;2023-07-30T02:46:53;4.23;;;2.77;;
74245;SDS011;62601;51.044;13.788;2023-07-30T02:49:13;3.60;;;3.00;;
74245;SDS011;62601;51.044;13.788;2023-07-30T02:51:33;2.83;;;2.53;;
74245;SDS011;62601;51.044;13.788;2023-07-30T02:53:57;4.33;;;3.13;;
74245;SDS011;62601;51.044;13.788;2023-07-30T02:56:17;3.37;;;3.07;;
74245;SDS011;62601;51.044;13.788;2023-07-30T02:58:37;4.97;;;3.77;;
74245;SDS011;62601;51.044;13.788;2023-07-30T03:01:04;6.10;;;3.63;;
74245;SDS011;62601;51.044;13.788;2023-07-30T03:03:24;4.20;;;3.50;;
74245;SDS011;62601;51.044;13.788;2023-07-30T03:05:44;3.37;;;3.07;;
74245;SDS011;62601;51.044;13.788;2023-07-30T03:08:05;3.33;;;3.03;;
74245;SDS011;62601;51.044;13.788;2023-07-30T03:10:25;3.00;;;2.70;;
74245;SDS011;62601;51.044;13.788;2023-07-30T03:12:45;5.37;;;3.93;;
74245;SDS011;62601;51.044;13.788;2023-07-30T03:15:05;3.60;;;2.90;;
74245;SDS011;62601;51.044;13.788;2023-07-30T03:17:25;6.23;;;3.67;;
74245;SDS011;62601;51.044;13.788;2023-07-30T03:19:46;4.00;;;3.60;;
74245;SDS011;62601;51.044;13.788;2023-07-30T03:22:06;3.67;;;2.87;;
74245;SDS011;62601;51.044;13.788;2023-07-30T03:24:26;3.60;;;3.20;;
74245;SDS011;62601;51.044;13.788;2023-07-30T03:26:46;3.43;;;3.07;;
74245;SDS011;62601;51.044;13.788;2023-07-30T03:29:06;2.90;;;2.70;;
74245;SDS011;62601;51.044;13.788;2023-07-30T03:31:26;3.80;;;3.17;;
74245;SDS011;62601;51.044;13.788;2023-07-30T03:33:46;8.67;;;7.37;;
74245;SDS011;62601;51.044;13.788;2023-07-30T03:36:06;4.33;;;3.93;;
74245;SDS011;62601;51.044;13.788;2023-07-30T03:38:26;4.83;;;3.23;;
74245;SDS011;62601;51.044;13.788;2023-07-30T03:40:47;3.60;;;3.03;;
74245;SDS011;62601;51.044;13.788;2023-07-30T03:43:07;4.80;;;3.70;;
74245;SDS011;62601;51.044;13.788;2023-07-30T03:45:27;5.27;;;3.67;;
74245;SDS011;62601;51.044;13.788;2023-07-30T03:47:47;4.20;;;3.80;;
74245;SDS011;62601;51.044;13.788;2023-07-30T03:50:07;5.07;;;4.00;;
74245;SDS011;62601;51.044;13.788;2023-07-30T03:52:27;5.17;;;3.70;;
74245;SDS011;62601;51.044;13.788;2023-07-30T03:54:47;4.13;;;3.73;;
74245;SDS011;62601;51.044;13.788;2023-07-30T03:57:07;5.70;;;4.40;;
74245;SDS011;62601;51.044;13.788;2023-07-30T03:59:28;5.40;;;3.37;;
74245;SDS011;62601;51.044;13.788;2023-07-30T04:01:48;4.13;;;3.80;;
74245;SDS011;62601;51.044;13.788;2023-07-30T04:04:08;4.60;;;4.07;;
74245;SDS011;62601;51.044;13.788;2023-07-30T04:06:28;3.40;;;3.10;;
74245;SDS011;62601;51.044;13.788;2023-07-30T04:08:48;5.20;;;4.70;;
74245;SDS011;62601;51.044;13.788;2023-07-30T04:11:08;5.23;;;3.50;;
74245;SDS011;62601;51.044;13.788;2023-07-30T04:13:28;3.13;;;2.90;;
74245;SDS011;62601;51.044;13.788;2023-07-30T04:15:48;4.90;;;4.50;;
74245;SDS011;62601;51.044;13.788;2023-07-30T04:18:08;5.23;;;4.63;;
74245;SDS011;62601;51.044;13.788;2023-07-30T04:20:29;6.37;;;4.07;;
74245;SDS011;62601;51.044;13.788;2023-07-30T04:22:49;5.70;;;3.90;;
74245;SDS011;62601;51.044;13.788;2023-07-30T04:25:09;3.30;;;3.10;;
74245;SDS011;62601;51.044;13.788;2023-07-30T04:27:29;3.57;;;3.00;;
74245;SDS011;62601;51.044;13.788;2023-07-30T04:29:49;3.00;;;2.80;;
74245;SDS011;62601;51.044;13.788;2023-07-30T04:32:09;3.87;;;3.57;;
74245;SDS011;62601;51.044;13.788;2023-07-30T04:34:30;3.77;;;3.37;;
74245;SDS011;62601;51.044;13.788;2023-07-30T04:36:50;3.77;;;3.47;;
74245;SDS011;62601;51.044;13.788;2023-07-30T04:39:10;8.00;;;3.50;;
74245;SDS011;62601;51.044;13.788;2023-07-30T04:41:30;3.60;;;3.30;;
74245;SDS011;62601;51.044;13.788;2023-07-30T04:43:50;4.17;;;3.70;;
74245;SDS011;62601;51.044;13.788;2023-07-30T04:46:10;4.77;;;4.23;;
74245;SDS011;62601;51.044;13.788;2023-07-30T04:48:30;4.00;;;3.60;;
74245;SDS011;62601;51.044;13.788;2023-07-30T04:50:50;4.50;;;3.67;;
74245;SDS011;62601;51.044;13.788;2023-07-30T04:53:10;4.07;;;3.53;;
74245;SDS011;62601;51.044;13.788;2023-07-30T04:55:30;4.30;;;3.70;;
74245;SDS011;62601;51.044;13.788;2023-07-30T04:57:50;3.97;;;3.67;;
74245;SDS011;62601;51.044;13.788;2023-07-30T05:00:11;4.60;;;4.20;;
74245;SDS011;62601;51.044;13.788;2023-07-30T05:02:31;4.20;;;3.60;;
74245;SDS011;62601;51.044;13.788;2023-07-30T05:04:51;4.33;;;3.93;;
74245;SDS011;62601;51.044;13.788;2023-07-30T05:07:11;5.03;;;4.53;;
74245;SDS011;62601;51.044;13.788;2023-07-30T05:09:31;3.63;;;3.33;;
74245;SDS011;62601;51.044;13.788;2023-07-30T05:11:52;4.73;;;4.33;;
74245;SDS011;62601;51.044;13.788;2023-07-30T05:14:12;5.10;;;3.90;;
74245;SDS011;62601;51.044;13.788;2023-07-30T05:16:32;4.33;;;3.87;;
74245;SDS011;62601;51.044;13.788;2023-07-30T05:18:52;4.23;;;3.90;;
74245;SDS011;62601;51.044;13.788;2023-07-30T05:21:12;3.90;;;3.50;;
74245;SDS011;62601;51.044;13.788;2023-07-30T05:23:32;4.60;;;3.40;;
74245;SDS011;62601;51.044;13.788;2023-07-30T05:25:52;3.30;;;3.03;;
74245;SDS011;62601;51.044;13.788;2023-07-30T05:28:12;4.40;;;4.00;;
74245;SDS011;62601;51.044;13.788;2023-07-30T05:30:32;4.73;;;3.60;;
74245;SDS011;62601;51.044;13.788;2023-07-30T05:32:52;4.80;;;4.40;;
74245;SDS011;62601;51.044;13.788;2023-07-30T05:35:12;5.00;;;4.50;;
74245;SDS011;62601;51.044;13.788;2023-07-30T05:37:33;3.60;;;3.30;;
74245;SDS011;62601;51.044;13.788;2023-07-30T05:39:53;6.30;;;4.20;;
74245;SDS011;62601;51.044;13.788;2023-07-30T05:42:13;4.13;;;3.77;;
74245;SDS011;62601;51.044;13.788;2023-07-30T05:44:33;5.40;;;3.47;;
74245;SDS011;62601;51.044;13.788;2023-07-30T05:46:53;3.30;;;3.10;;
74245;SDS011;62601;51.044;13.788;2023-07-30T05:49:13;3.97;;;3.57;;
74245;SDS011;62601;51.044;13.788;2023-07-30T05:51:33;4.87;;;3.50;;
74245;SDS011;62601;51.044;13.788;2023-07-30T05:53:53;3.70;;;2.87;;
74245;SDS011;62601;51.044;13.788;2023-07-30T05:56:13;3.97;;;3.57;;
74245;SDS011;62601;51.044;13.788;2023-07-30T05:58:33;6.03;;;3.70;;
74245;SDS011;62601;51.044;13.788;2023-07-30T06:00:54;3.77;;;3.33;;
74245;SDS011;62601;51.044;13.788;2023-07-30T06:03:14;4.30;;;3.30;;
74245;SDS011;62601;51.044;13.788;2023-07-30T06:05:38;5.20;;;3.20;;
74245;SDS011;62601;51.044;13.788;2023-07-30T06:07:58;5.27;;;2.93;;
74245;SDS011;62601;51.044;13.788;2023-07-30T06:10:18;3.23;;;2.93;;
74245;SDS011;62601;51.044;13.788;2023-07-30T06:12:38;3.23;;;3.00;;
74245;SDS011;62601;51.044;13.788;2023-07-30T06:14:58;6.20;;;3.20;;
74245;SDS011;62601;51.044;13.788;2023-07-30T06:17:19;4.30;;;3.40;;
74245;SDS011;62601;51.044;13.788;2023-07-30T06:19:39;5.13;;;3.27;;
74245;SDS011;62601;51.044;13.788;2023-07-30T06:21:59;6.50;;;3.87;;
74245;SDS011;62601;51.044;13.788;2023-07-30T06:24:19;5.07;;;3.10;;
74245;SDS011;62601;51.044;13.788;2023-07-30T06:26:39;4.50;;;3.70;;
74245;SDS011;62601;51.044;13.788;2023-07-30T06:28:59;3.17;;;2.83;;
74245;SDS011;62601;51.044;13.788;2023-07-30T06:31:19;6.90;;;3.73;;
74245;SDS011;62601;51.044;13.788;2023-07-30T06:33:39;3.60;;;3.17;;
74245;SDS011;62601;51.044;13.788;2023-07-30T06:35:59;6.17;;;3.23;;
74245;SDS011;62601;51.044;13.788;2023-07-30T06:38:19;3.13;;;2.60;;
74245;SDS011;62601;51.044;13.788;2023-07-30T06:40:40;5.53;;;3.13;;
74245;SDS011;62601;51.044;13.788;2023-07-30T06:43:00;3.33;;;3.03;;
74245;SDS011;62601;51.044;13.788;2023-07-30T06:45:20;3.40;;;3.10;;
74245;SDS011;62601;51.044;13.788;2023-07-30T06:47:40;3.27;;;3.07;;
74245;SDS011;62601;51.044;13.788;2023-07-30T06:50:00;3.67;;;3.37;;
74245;SDS011;62601;51.044;13.788;2023-07-30T06:52:20;7.53;;;3.00;;
74245;SDS011;62601;51.044;13.788;2023-07-30T06:54:40;4.40;;;3.50;;
74245;SDS011;62601;51.044;13.788;2023-07-30T06:57:01;3.17;;;2.87;;
74245;SDS011;62601;51.044;13.788;2023-07-30T06:59:21;5.57;;;3.00;;
74245;SDS011;62601;51.044;13.788;2023-07-30T07:01:41;3.50;;;2.97;;
74245;SDS011;62601;51.044;13.788;2023-07-30T07:04:01;4.70;;;3.33;;
74245;SDS011;62601;51.044;13.788;2023-07-30T07:06:21;3.90;;;3.50;;
74245;SDS011;62601;51.044;13.788;2023-07-30T07:08:41;4.27;;;3.03;;
74245;SDS011;62601;51.044;13.788;2023-07-30T07:11:01;3.70;;;3.40;;
74245;SDS011;62601;51.044;13.788;2023-07-30T07:13:21;4.67;;;3.03;;
74245;SDS011;62601;51.044;13.788;2023-07-30T07:15:42;3.50;;;3.20;;
74245;SDS011;62601;51.044;13.788;2023-07-30T07:18:02;4.00;;;3.60;;
74245;SDS011;62601;51.044;13.788;2023-07-30T07:20:22;3.50;;;3.20;;
74245;SDS011;62601;51.044;13.788;2023-07-30T07:22:42;3.67;;;3.30;;
74245;SDS011;62601;51.044;13.788;2023-07-30T07:25:02;4.83;;;3.00;;
74245;SDS011;62601;51.044;13.788;2023-07-30T07:27:23;3.83;;;3.03;;
74245;SDS011;62601;51.044;13.788;2023-07-30T07:29:43;5.23;;;3.23;;
74245;SDS011;62601;51.044;13.788;2023-07-30T07:32:03;3.40;;;3.10;;
74245;SDS011;62601;51.044;13.788;2023-07-30T07:34:23;5.10;;;2.90;;
74245;SDS011;62601;51.044;13.788;2023-07-30T07:36:43;3.73;;;3.00;;
74245;SDS011;62601;51.044;13.788;2023-07-30T07:39:03;10.20;;;6.40;;
74245;SDS011;62601;51.044;13.788;2023-07-30T07:41:23;5.07;;;4.57;;
74245;SDS011;62601;51.044;13.788;2023-07-30T07:43:44;5.33;;;4.67;;
74245;SDS011;62601;51.044;13.788;2023-07-30T07:46:04;4.37;;;4.07;;
74245;SDS011;62601;51.044;13.788;2023-07-30T07:48:24;15.70;;;8.40;;
74245;SDS011;62601;51.044;13.788;2023-07-30T07:50:45;13.07;;;6.90;;
74245;SDS011;62601;51.044;13.788;2023-07-30T07:53:05;4.30;;;3.60;;
74245;SDS011;62601;51.044;13.788;2023-07-30T07:55:25;8.00;;;4.50;;
74245;SDS011;62601;51.044;13.788;2023-07-30T07:57:45;11.40;;;5.97;;
74245;SDS011;62601;51.044;13.788;2023-07-30T08:00:05;4.40;;;3.50;;
74245;SDS011;62601;51.044;13.788;2023-07-30T08:02:26;4.40;;;3.37;;
74245;SDS011;62601;51.044;13.788;2023-07-30T08:04:46;3.27;;;3.07;;
74245;SDS011;62601;51.044;13.788;2023-07-30T08:07:06;3.50;;;3.00;;
74245;SDS011;62601;51.044;13.788;2023-07-30T08:09:26;4.00;;;3.30;;
74245;SDS011;62601;51.044;13.788;2023-07-30T08:11:46;4.57;;;3.27;;
74245;SDS011;62601;51.044;13.788;2023-07-30T08:14:06;6.17;;;4.33;;
74245;SDS011;62601;51.044;13.788;2023-07-30T08:16:26;5.70;;;4.43;;
74245;SDS011;62601;51.044;13.788;2023-07-30T08:18:47;3.47;;;3.17;;
74245;SDS011;62601;51.044;13.788;2023-07-30T08:21:07;8.27;;;3.30;;
74245;SDS011;62601;51.044;13.788;2023-07-30T08:23:27;3.60;;;3.30;;
74245;SDS011;62601;51.044;13.788;2023-07-30T08:25:47;3.20;;;2.90;;
74245;SDS011;62601;51.044;13.788;2023-07-30T08:28:07;3.97;;;3.57;;
74245;SDS011;62601;51.044;13.788;2023-07-30T08:30:27;3.23;;;2.80;;
74245;SDS011;62601;51.044;13.788;2023-07-30T08:32:47;3.30;;;3.00;;
74245;SDS011;62601;51.044;13.788;2023-07-30T08:35:07;3.10;;;2.80;;
74245;SDS011;62601;51.044;13.788;2023-07-30T08:37:28;3.10;;;2.80;;
74245;SDS011;62601;51.044;13.788;2023-07-30T08:39:48;3.23;;;2.50;;
74245;SDS011;62601;51.044;13.788;2023-07-30T08:42:08;3.40;;;3.10;;
74245;SDS011;62601;51.044;13.788;2023-07-30T08:44:28;3.10;;;2.80;;
74245;SDS011;62601;51.044;13.788;2023-07-30T08:46:48;2.77;;;2.57;;
74245;SDS011;62601;51.044;13.788;2023-07-30T08:49:09;2.70;;;2.50;;
74245;SDS011;62601;51.044;13.788;2023-07-30T08:51:29;3.57;;;2.70;;
74245;SDS011;62601;51.044;13.788;2023-07-30T08:53:49;2.23;;;2.13;;
74245;SDS011;62601;51.044;13.788;2023-07-30T08:56:10;2.87;;;2.67;;
74245;SDS011;62601;51.044;13.788;2023-07-30T08:58:31;2.60;;;2.40;;
74245;SDS011;62601;51.044;13.788;2023-07-30T09:00:53;2.47;;;2.27;;
74245;SDS011;62601;51.044;13.788;2023-07-30T09:03:15;2.60;;;2.40;;
74245;SDS011;62601;51.044;13.788;2023-07-30T09:05:36;2.80;;;2.40;;
74245;SDS011;62601;51.044;13.788;2023-07-30T09:07:56;6.20;;;5.50;;
74245;SDS011;62601;51.044;13.788;2023-07-30T09:10:17;3.57;;;3.30;;
74245;SDS011;62601;51.044;13.788;2023-07-30T09:12:37;4.30;;;2.70;;
74245;SDS011;62601;51.044;13.788;2023-07-30T09:14:57;3.27;;;2.30;;
74245;SDS011;62601;51.044;13.788;2023-07-30T09:17:18;2.10;;;2.00;;
74245;SDS011;62601;51.044;13.788;2023-07-30T09:19:38;2.47;;;2.00;;
74245;SDS011;62601;51.044;13.788;2023-07-30T09:21:58;2.87;;;2.30;;
74245;SDS011;62601;51.044;13.788;2023-07-30T09:24:21;2.67;;;2.17;;
74245;SDS011;62601;51.044;13.788;2023-07-30T09:26:42;3.57;;;2.27;;
74245;SDS011;62601;51.044;13.788;2023-07-30T09:29:06;4.73;;;2.50;;
74245;SDS011;62601;51.044;13.788;2023-07-30T09:31:27;2.93;;;2.47;;
74245;SDS011;62601;51.044;13.788;2023-07-30T09:33:47;2.10;;;2.00;;
74245;SDS011;62601;51.044;13.788;2023-07-30T09:36:07;2.93;;;2.70;;
74245;SDS011;62601;51.044;13.788;2023-07-30T09:38:28;3.53;;;2.10;;
74245;SDS011;62601;51.044;13.788;2023-07-30T09:40:48;2.70;;;2.50;;
74245;SDS011;62601;51.044;13.788;2023-07-30T09:43:09;2.30;;;2.10;;
74245;SDS011;62601;51.044;13.788;2023-07-30T09:45:35;3.30;;;2.73;;
74245;SDS011;62601;51.044;13.788;2023-07-30T09:47:55;2.43;;;2.23;;
74245;SDS011;62601;51.044;13.788;2023-07-30T09:50:15;2.13;;;2.03;;
74245;SDS011;62601;51.044;13.788;2023-07-30T09:52:35;2.40;;;2.03;;
74245;SDS011;62601;51.044;13.788;2023-07-30T09:54:57;2.70;;;2.50;;
74245;SDS011;62601;51.044;13.788;2023-07-30T09:57:17;3.40;;;3.00;;
74245;SDS011;62601;51.044;13.788;2023-07-30T09:59:37;2.50;;;2.33;;
74245;SDS011;62601;51.044;13.788;2023-07-30T10:01:58;2.40;;;2.30;;
74245;SDS011;62601;51.044;13.788;2023-07-30T10:04:19;2.70;;;2.50;;
74245;SDS011;62601;51.044;13.788;2023-07-30T10:06:42;2.67;;;2.47;;
74245;SDS011;62601;51.044;13.788;2023-07-30T10:09:04;3.03;;;2.73;;
74245;SDS011;62601;51.044;13.788;2023-07-30T10:11:24;3.50;;;3.30;;
74245;SDS011;62601;51.044;13.788;2023-07-30T10:13:44;5.80;;;5.37;;
74245;SDS011;62601;51.044;13.788;2023-07-30T10:16:11;5.37;;;4.97;;
74245;SDS011;62601;51.044;13.788;2023-07-30T10:18:41;6.33;;;5.73;;
74245;SDS011;62601;51.044;13.788;2023-07-30T10:21:01;3.00;;;2.80;;
74245;SDS011;62601;51.044;13.788;2023-07-30T10:23:21;3.17;;;2.97;;
74245;SDS011;62601;51.044;13.788;2023-07-30T10:25:48;2.97;;;2.77;;
74245;SDS011;62601;51.044;13.788;2023-07-30T10:28:08;3.10;;;2.80;;
74245;SDS011;62601;51.044;13.788;2023-07-30T10:30:31;3.13;;;2.83;;
74245;SDS011;62601;51.044;13.788;2023-07-30T10:35:34;4.43;;;2.97;;
74245;SDS011;62601;51.044;13.788;2023-07-30T10:37:54;3.07;;;2.60;;
74245;SDS011;62601;51.044;13.788;2023-07-30T10:40:15;3.63;;;3.40;;
74245;SDS011;62601;51.044;13.788;2023-07-30T10:42:35;3.30;;;3.10;;
74245;SDS011;62601;51.044;13.788;2023-07-30T10:44:55;3.80;;;2.50;;
74245;SDS011;62601;51.044;13.788;2023-07-30T10:47:17;7.80;;;7.10;;
74245;SDS011;62601;51.044;13.788;2023-07-30T10:49:38;5.93;;;5.40;;
74245;SDS011;62601;51.044;13.788;2023-07-30T10:51:58;2.47;;;2.27;;
74245;SDS011;62601;51.044;13.788;2023-07-30T10:54:18;2.57;;;2.30;;
74245;SDS011;62601;51.044;13.788;2023-07-30T10:56:38;2.83;;;2.63;;
74245;SDS011;62601;51.044;13.788;2023-07-30T10:58:59;2.43;;;2.30;;
74245;SDS011;62601;51.044;13.788;2023-07-30T11:01:19;2.50;;;2.30;;
74245;SDS011;62601;51.044;13.788;2023-07-30T11:03:39;2.60;;;2.40;;
74245;SDS011;62601;51.044;13.788;2023-07-30T11:05:59;3.03;;;2.60;;
74245;SDS011;62601;51.044;13.788;2023-07-30T11:08:33;2.37;;;2.17;;
74245;SDS011;62601;51.044;13.788;2023-07-30T11:10:53;2.70;;;2.50;;
74245;SDS011;62601;51.044;13.788;2023-07-30T11:13:16;2.60;;;2.40;;
74245;SDS011;62601;51.044;13.788;2023-07-30T11:15:40;2.37;;;2.20;;
74245;SDS011;62601;51.044;13.788;2023-07-30T11:18:00;2.70;;;2.50;;
74245;SDS011;62601;51.044;13.788;2023-07-30T11:20:21;2.10;;;2.00;;
74245;SDS011;62601;51.044;13.788;2023-07-30T11:22:41;2.50;;;2.30;;
74245;SDS011;62601;51.044;13.788;2023-07-30T11:25:01;2.30;;;2.10;;
74245;SDS011;62601;51.044;13.788;2023-07-30T11:27:21;2.30;;;2.20;;
74245;SDS011;62601;51.044;13.788;2023-07-30T11:29:41;6.17;;;1.70;;
74245;SDS011;62601;51.044;13.788;2023-07-30T11:32:13;3.23;;;1.97;;
74245;SDS011;62601;51.044;13.788;2023-07-30T11:34:34;2.10;;;1.83;;
74245;SDS011;62601;51.044;13.788;2023-07-30T11:36:54;1.87;;;1.77;;
74245;SDS011;62601;51.044;13.788;2023-07-30T11:39:15;3.30;;;1.50;;
74245;SDS011;62601;51.044;13.788;2023-07-30T11:41:35;1.30;;;1.20;;
74245;SDS011;62601;51.044;13.788;2023-07-30T11:43:56;3.07;;;2.17;;
74245;SDS011;62601;51.044;13.788;2023-07-30T11:46:16;2.20;;;1.73;;
74245;SDS011;62601;51.044;13.788;2023-07-30T11:48:37;1.40;;;1.30;;
74245;SDS011;62601;51.044;13.788;2023-07-30T11:50:57;1.80;;;1.47;;
74245;SDS011;62601;51.044;13.788;2023-07-30T11:53:18;1.63;;;1.20;;
74245;SDS011;62601;51.044;13.788;2023-07-30T11:55:38;1.03;;;1.03;;
74245;SDS011;62601;51.044;13.788;2023-07-30T11:57:59;1.37;;;1.27;;
74245;SDS011;62601;51.044;13.788;2023-07-30T12:00:22;1.20;;;1.10;;
74245;SDS011;62601;51.044;13.788;2023-07-30T12:02:42;4.63;;;4.33;;
74245;SDS011;62601;51.044;13.788;2023-07-30T12:05:03;3.03;;;2.83;;
74245;SDS011;62601;51.044;13.788;2023-07-30T12:07:23;2.10;;;1.10;;
74245;SDS011;62601;51.044;13.788;2023-07-30T12:09:43;1.90;;;1.70;;
74245;SDS011;62601;51.044;13.788;2023-07-30T12:12:03;1.30;;;1.30;;
74245;SDS011;62601;51.044;13.788;2023-07-30T12:14:24;1.60;;;1.50;;
74245;SDS011;62601;51.044;13.788;2023-07-30T12:16:45;1.43;;;1.33;;
74245;SDS011;62601;51.044;13.788;2023-07-30T12:19:05;1.80;;;1.23;;
74245;SDS011;62601;51.044;13.788;2023-07-30T12:21:25;1.30;;;1.20;;
74245;SDS011;62601;51.044;13.788;2023-07-30T12:23:45;3.37;;;1.23;;
74245;SDS011;62601;51.044;13.788;2023-07-30T12:26:05;1.30;;;0.90;;
74245;SDS011;62601;51.044;13.788;2023-07-30T12:28:25;1.30;;;1.10;;
74245;SDS011;62601;51.044;13.788;2023-07-30T12:30:46;1.20;;;1.10;;
74245;SDS011;62601;51.044;13.788;2023-07-30T12:33:06;1.47;;;1.10;;
74245;SDS011;62601;51.044;13.788;2023-07-30T12:35:26;1.33;;;1.10;;
74245;SDS011;62601;51.044;13.788;2023-07-30T12:37:46;1.30;;;1.30;;
74245;SDS011;62601;51.044;13.788;2023-07-30T12:40:06;1.47;;;1.10;;
74245;SDS011;62601;51.044;13.788;2023-07-30T12:42:26;1.20;;;1.10;;
74245;SDS011;62601;51.044;13.788;2023-07-30T12:44:47;1.20;;;1.20;;
74245;SDS011;62601;51.044;13.788;2023-07-30T12:47:07;1.40;;;1.30;;
74245;SDS011;62601;51.044;13.788;2023-07-30T12:49:27;1.27;;;1.27;;
74245;SDS011;62601;51.044;13.788;2023-07-30T12:51:47;1.50;;;1.40;;
74245;SDS011;62601;51.044;13.788;2023-07-30T12:54:07;1.40;;;1.33;;
74245;SDS011;62601;51.044;13.788;2023-07-30T12:56:27;1.77;;;1.50;;
74245;SDS011;62601;51.044;13.788;2023-07-30T12:58:47;1.30;;;1.30;;
74245;SDS011;62601;51.044;13.788;2023-07-30T13:01:07;1.33;;;1.23;;
74245;SDS011;62601;51.044;13.788;2023-07-30T13:03:27;1.30;;;1.30;;
74245;SDS011;62601;51.044;13.788;2023-07-30T13:05:47;1.50;;;1.50;;
74245;SDS011;62601;51.044;13.788;2023-07-30T13:08:07;1.10;;;1.10;;
74245;SDS011;62601;51.044;13.788;2023-07-30T13:10:28;1.40;;;1.30;;
74245;SDS011;62601;51.044;13.788;2023-07-30T13:12:48;1.40;;;1.40;;
74245;SDS011;62601;51.044;13.788;2023-07-30T13:15:08;1.10;;;1.10;;
74245;SDS011;62601;51.044;13.788;2023-07-30T13:17:28;1.10;;;1.10;;
74245;SDS011;62601;51.044;13.788;2023-07-30T13:19:48;1.17;;;1.10;;
74245;SDS011;62601;51.044;13.788;2023-07-30T13:22:08;1.23;;;1.13;;
74245;SDS011;62601;51.044;13.788;2023-07-30T13:24:29;1.50;;;1.40;;
74245;SDS011;62601;51.044;13.788;2023-07-30T13:26:49;1.40;;;1.30;;
74245;SDS011;62601;51.044;13.788;2023-07-30T13:29:09;1.43;;;1.23;;
74245;SDS011;62601;51.044;13.788;2023-07-30T13:31:29;1.30;;;1.20;;
74245;SDS011;62601;51.044;13.788;2023-07-30T13:33:49;1.27;;;1.17;;
74245;SDS011;62601;51.044;13.788;2023-07-30T13:36:09;1.47;;;1.07;;
74245;SDS011;62601;51.044;13.788;2023-07-30T13:38:29;1.50;;;1.20;;
74245;SDS011;62601;51.044;13.788;2023-07-30T13:40:49;4.53;;;1.40;;
74245;SDS011;62601;51.044;13.788;2023-07-30T13:43:09;0.93;;;0.93;;
74245;SDS011;62601;51.044;13.788;2023-07-30T13:45:31;1.37;;;1.20;;
74245;SDS011;62601;51.044;13.788;2023-07-30T13:47:51;1.47;;;1.37;;
74245;SDS011;62601;51.044;13.788;2023-07-30T13:50:11;1.37;;;1.13;;
74245;SDS011;62601;51.044;13.788;2023-07-30T13:52:31;1.37;;;1.07;;
74245;SDS011;62601;51.044;13.788;2023-07-30T13:54:51;1.40;;;1.30;;